Time;durP1;ratioP1;P1;durP2;ratioP2;P2;SDS_P1;SDS_P2;PMS_P1;PMS_P2;Temp;Humidity;BMP_temperature;BMP_pressure;BME280_temperature;BME280_humidity;BME280_pressure;Samples;Min_cycle;Max_cycle;Signal;HPM_P1;HPM_P2
2022/07/10 00:01:20;;;;;;;5.18;0.60;;;14.70;99.90;;;;;;5091356;28;20032;-46
2022/07/10 00:03:46;;;;;;;6.05;1.02;;;14.60;99.90;;;;;;5090114;28;20404;-46
2022/07/10 00:06:12;;;;;;;4.55;0.50;;;14.60;99.90;;;;;;5090028;28;20036;-46
2022/07/10 00:08:38;;;;;;;;;;;14.50;99.90;;;;;;5091716;28;20119;-45
2022/07/10 00:11:03;;;;;;;5.22;0.43;;;14.50;99.90;;;;;;5072901;28;20424;-48
2022/07/10 00:13:29;;;;;;;9.00;0.98;;;14.40;99.90;;;;;;5078728;28;20040;-48
2022/07/10 00:15:54;;;;;;;9.15;0.75;;;14.40;99.90;;;;;;5087503;28;20497;-47
2022/07/10 00:18:20;;;;;;;5.30;0.88;;;14.30;99.90;;;;;;5070266;28;20036;-49
2022/07/10 00:20:46;;;;;;;2.55;0.60;;;14.30;99.90;;;;;;5086287;28;20047;-46
2022/07/10 00:23:11;;;;;;;9.45;0.88;;;14.30;99.90;;;;;;5088070;28;20526;-48
2022/07/10 00:25:37;;;;;;;8.07;1.42;;;14.30;99.90;;;;;;5090984;28;20047;-45
2022/07/10 00:28:04;;;;;;;5.13;0.60;;;14.20;99.90;;;;;;5090228;28;20044;-49
2022/07/10 00:30:29;;;;;;;5.13;0.55;;;14.20;99.90;;;;;;5078560;28;20520;-50
2022/07/10 00:32:55;;;;;;;12.85;1.13;;;14.30;99.90;;;;;;5072864;28;20032;-48
2022/07/10 00:35:20;;;;;;;9.30;0.93;;;14.20;99.90;;;;;;5089941;28;20038;-47
2022/07/10 00:37:46;;;;;;;4.35;1.15;;;14.20;99.90;;;;;;5089209;28;20397;-48
2022/07/10 00:40:12;;;;;;;3.27;0.80;;;14.20;99.90;;;;;;5084393;28;20035;-46
2022/07/10 00:42:37;;;;;;;6.35;0.73;;;14.20;99.90;;;;;;5069764;28;20297;-47
2022/07/10 00:45:03;;;;;;;5.72;0.65;;;14.20;99.90;;;;;;5084419;28;20036;-46
2022/07/10 00:47:29;;;;;;;3.60;0.85;;;14.10;99.90;;;;;;5089408;28;20047;-48
2022/07/10 00:49:54;;;;;;;7.50;1.00;;;14.10;99.90;;;;;;5089112;28;20386;-47
2022/07/10 00:52:21;;;;;;;6.10;0.65;;;14.10;99.90;;;;;;5089550;28;20571;-49
2022/07/10 00:54:48;;;;;;;;;;;14.10;99.90;;;;;;5075960;28;20044;-47
2022/07/10 00:57:15;;;;;;;3.08;0.60;;;14.10;99.90;;;;;;5087774;28;20324;-45
2022/07/10 00:59:41;;;;;;;8.65;0.77;;;14.20;99.90;;;;;;5083883;28;20528;-47
2022/07/10 01:02:07;;;;;;;6.07;1.52;;;14.20;99.90;;;;;;5077942;28;20032;-45
2022/07/10 01:04:33;;;;;;;4.82;0.35;;;14.10;99.90;;;;;;5085478;28;20028;-47
2022/07/10 01:06:59;;;;;;;5.85;0.40;;;14.10;99.90;;;;;;5085974;28;20094;-47
2022/07/10 01:09:25;;;;;;;11.32;1.23;;;14.10;99.90;;;;;;5069960;28;20036;-48
2022/07/10 01:11:51;;;;;;;;;;;14.10;99.90;;;;;;5077398;28;20106;-46
2022/07/10 01:14:17;;;;;;;5.60;0.90;;;14.10;99.90;;;;;;5088739;28;19991;-48
2022/07/10 01:16:43;;;;;;;7.38;0.50;;;14.10;99.90;;;;;;5088925;28;20040;-47
2022/07/10 01:19:09;;;;;;;5.50;0.43;;;14.10;99.90;;;;;;5089520;28;20451;-50
2022/07/10 01:21:36;;;;;;;7.00;0.70;;;14.10;99.90;;;;;;5088417;28;20044;-45
2022/07/10 01:24:07;;;;;;;5.57;0.70;;;14.10;99.90;;;;;;5070440;28;20039;-47
2022/07/10 01:26:34;;;;;;;3.40;0.63;;;14.10;99.90;;;;;;5073381;28;20044;-50
2022/07/10 01:29:03;;;;;;;4.93;0.85;;;14.10;99.90;;;;;;5073849;28;20044;-47
2022/07/10 01:31:28;;;;;;;7.10;0.88;;;14.10;99.90;;;;;;5073401;28;20041;-47
2022/07/10 01:33:55;;;;;;;5.20;0.82;;;14.10;99.90;;;;;;5073404;28;20051;-44
2022/07/10 01:36:22;;;;;;;7.57;1.45;;;14.10;99.90;;;;;;5073675;28;20443;-46
2022/07/10 01:38:47;;;;;;;8.90;0.80;;;14.10;99.90;;;;;;5089582;28;20036;-48
2022/07/10 01:41:13;;;;;;;3.00;0.40;;;14.10;99.90;;;;;;5093786;28;20373;-47
2022/07/10 01:43:42;;;;;;;10.77;0.75;;;14.10;99.90;;;;;;5084419;28;20044;-46
2022/07/10 01:46:10;;;;;;;1.90;0.50;;;14.10;99.90;;;;;;5071737;28;20048;-48
2022/07/10 01:48:37;;;;;;;3.70;0.60;;;14.10;99.90;;;;;;5073055;28;20532;-46
2022/07/10 01:51:02;;;;;;;6.43;1.15;;;14.10;99.90;;;;;;5073216;28;20037;-47
2022/07/10 01:53:28;;;;;;;7.50;0.55;;;14.10;99.90;;;;;;5075231;28;20028;-47
2022/07/10 01:55:54;;;;;;;6.00;0.90;;;14.00;99.90;;;;;;5093574;28;20074;-49
2022/07/10 01:58:20;;;;;;;6.90;1.05;;;14.10;99.90;;;;;;5092002;28;20039;-48
2022/07/10 02:00:45;;;;;;;7.07;0.95;;;14.10;99.90;;;;;;5093458;28;20489;-47
2022/07/10 02:05:55;;;;;;;6.40;0.63;;;14.00;99.90;;;;;;5080931;28;20040;-47
2022/07/10 02:08:20;;;;;;;7.15;1.13;;;14.10;99.90;;;;;;5090427;28;20040;-45
2022/07/10 02:10:46;;;;;;;8.25;1.40;;;14.10;99.90;;;;;;5079949;28;20028;-46
2022/07/10 02:13:14;;;;;;;7.75;1.52;;;14.10;99.90;;;;;;5091860;28;20038;-47
2022/07/10 02:15:40;;;;;;;7.65;1.48;;;14.10;99.90;;;;;;5090598;28;20067;-45
2022/07/10 02:18:06;;;;;;;2.75;0.55;;;14.10;99.90;;;;;;5091087;28;20075;-46
2022/07/10 02:20:33;;;;;;;2.78;0.75;;;14.00;99.90;;;;;;5093007;28;20513;-45
2022/07/10 02:22:58;;;;;;;10.55;1.20;;;14.00;99.90;;;;;;5091802;28;20427;-48
2022/07/10 02:25:24;;;;;;;6.18;1.33;;;14.00;99.90;;;;;;5091198;28;20032;-46
2022/07/10 02:27:49;;;;;;;7.55;0.40;;;14.00;99.90;;;;;;5091671;28;20101;-45
2022/07/10 02:30:15;;;;;;;6.78;1.20;;;13.90;99.90;;;;;;5082186;28;20398;-47
2022/07/10 02:32:41;;;;;;;11.32;1.95;;;14.00;99.90;;;;;;5072220;28;20464;-49
2022/07/10 02:35:07;;;;;;;6.50;1.03;;;13.90;99.90;;;;;;5073730;28;20115;-46
2022/07/10 02:37:32;;;;;;;7.75;1.33;;;13.90;99.90;;;;;;5092144;28;20424;-46
2022/07/10 02:39:58;;;;;;;8.25;1.15;;;13.90;99.90;;;;;;5091913;28;20517;-46
2022/07/10 02:42:23;;;;;;;7.67;1.87;;;13.80;99.90;;;;;;5091414;28;20455;-50
2022/07/10 02:44:49;;;;;;;3.47;0.60;;;13.80;99.90;;;;;;5091113;28;20693;-46
2022/07/10 02:47:14;;;;;;;7.47;1.20;;;13.70;99.90;;;;;;5091038;28;20067;-45
2022/07/10 02:49:40;;;;;;;7.85;0.75;;;13.70;99.90;;;;;;5092236;28;20408;-47
2022/07/10 02:52:06;;;;;;;3.75;0.68;;;13.70;99.90;;;;;;5092736;28;20035;-46
2022/07/10 02:54:31;;;;;;;7.68;0.75;;;13.60;99.90;;;;;;5090847;28;20093;-47
2022/07/10 02:56:57;;;;;;;7.97;1.37;;;13.60;99.90;;;;;;5081758;28;20513;-47
2022/07/10 02:59:22;;;;;;;5.20;0.90;;;13.60;99.90;;;;;;5071889;28;20043;-46
2022/07/10 03:01:48;;;;;;;5.90;0.93;;;13.50;99.90;;;;;;5072450;28;20041;-46
2022/07/10 03:04:13;;;;;;;4.83;0.87;;;13.50;99.90;;;;;;5071037;28;20271;-46
2022/07/10 03:06:39;;;;;;;4.10;0.82;;;13.50;99.90;;;;;;5075465;28;20055;-45
2022/07/10 03:09:04;;;;;;;4.30;0.32;;;13.50;99.90;;;;;;5092250;28;20186;-47
2022/07/10 03:11:30;;;;;;;5.07;0.50;;;13.40;99.90;;;;;;5089961;28;20414;-46
2022/07/10 03:13:55;;;;;;;11.07;1.63;;;13.40;99.90;;;;;;5090266;28;20336;-44
2022/07/10 03:16:21;;;;;;;9.20;1.23;;;13.40;99.90;;;;;;5086188;28;20036;-45
2022/07/10 03:18:47;;;;;;;4.57;0.95;;;13.30;99.90;;;;;;5072658;28;20037;-48
2022/07/10 03:21:12;;;;;;;6.88;1.00;;;13.30;99.90;;;;;;5087566;28;20044;-48
2022/07/10 03:23:39;;;;;;;3.15;0.50;;;13.30;99.90;;;;;;5090741;28;20040;-47
2022/07/10 03:26:05;;;;;;;8.75;0.95;;;13.30;99.90;;;;;;5074692;28;20064;-48
2022/07/10 03:28:30;;;;;;;6.90;0.90;;;13.30;99.90;;;;;;5086050;28;20553;-47
2022/07/10 03:30:56;;;;;;;9.63;1.35;;;13.30;99.90;;;;;;5091596;28;20111;-48
2022/07/10 03:33:22;;;;;;;4.50;0.80;;;13.20;99.90;;;;;;5090323;28;20032;-45
2022/07/10 03:35:48;;;;;;;9.35;0.57;;;13.20;99.90;;;;;;5091450;28;20043;-48
2022/07/10 03:38:13;;;;;;;7.85;1.10;;;13.10;99.90;;;;;;5082093;28;20044;-48
2022/07/10 03:40:39;;;;;;;5.93;0.93;;;13.10;99.90;;;;;;5070995;28;20036;-46
2022/07/10 03:43:04;;;;;;;8.23;1.13;;;13.10;99.90;;;;;;5069612;28;20051;-45
2022/07/10 03:45:30;;;;;;;5.60;0.73;;;13.10;99.90;;;;;;5070753;28;20162;-49
2022/07/10 03:47:56;;;;;;;5.78;1.13;;;13.10;99.90;;;;;;5071026;28;20441;-49
2022/07/10 03:50:21;;;;;;;4.97;0.70;;;13.00;99.90;;;;;;5070891;28;20044;-48
2022/07/10 03:52:47;;;;;;;7.57;0.85;;;13.00;99.90;;;;;;5070454;28;20279;-48
2022/07/10 03:55:12;;;;;;;3.97;0.60;;;13.00;99.90;;;;;;5070366;28;20109;-46
2022/07/10 03:57:53;;;;;;;6.30;0.70;;;13.00;99.90;;;;;;5069878;28;20302;-47
2022/07/10 04:00:26;;;;;;;7.55;1.13;;;12.90;99.90;;;;;;5082775;28;20039;-46
2022/07/10 04:03:10;;;;;;;4.03;0.88;;;13.00;99.90;;;;;;5069644;28;20037;-46
2022/07/10 04:05:36;;;;;;;5.95;0.77;;;13.00;99.90;;;;;;5070341;28;20409;-48
2022/07/10 04:08:03;;;;;;;4.18;0.50;;;13.00;99.90;;;;;;5069966;28;20036;-48
2022/07/10 04:10:31;;;;;;;4.10;1.10;;;13.00;99.90;;;;;;5071936;28;20036;-45
2022/07/10 04:12:56;;;;;;;6.93;0.98;;;13.00;99.90;;;;;;5069431;28;20526;-45
2022/07/10 04:15:23;;;;;;;11.32;1.00;;;13.10;99.90;;;;;;5072057;28;20044;-47
2022/07/10 04:17:49;;;;;;;;;;;13.10;99.90;;;;;;5090405;28;20501;-50
2022/07/10 04:20:15;;;;;;;3.95;0.93;;;13.10;99.90;;;;;;5081372;28;20001;-48
2022/07/10 04:22:41;;;;;;;5.47;0.40;;;13.20;99.90;;;;;;5069657;28;20110;-52
2022/07/10 04:25:08;;;;;;;5.45;0.60;;;13.20;99.90;;;;;;5070173;28;20192;-46
2022/07/10 04:27:33;;;;;;;4.03;0.60;;;13.20;99.90;;;;;;5083181;28;20051;-44
2022/07/10 04:29:59;;;;;;;7.53;1.27;;;13.30;99.90;;;;;;5080563;28;20383;-49
2022/07/10 04:32:24;;;;;;;4.88;0.70;;;13.30;99.90;;;;;;5071473;28;20076;-49
2022/07/10 04:34:50;;;;;;;6.67;0.83;;;13.30;99.90;;;;;;5076514;28;20119;-45
2022/07/10 04:37:16;;;;;;;5.85;0.63;;;13.40;99.90;;;;;;5087947;28;20306;-45
2022/07/10 04:39:41;;;;;;;11.82;0.82;;;13.40;99.90;;;;;;5085404;28;20028;-45
2022/07/10 04:42:08;;;;;;;5.43;1.00;;;13.40;99.90;;;;;;5085139;28;20118;-47
2022/07/10 04:44:34;;;;;;;;;;;13.40;99.90;;;;;;5089740;28;20036;-46
2022/07/10 04:46:59;;;;;;;7.53;1.13;;;13.40;99.90;;;;;;5089541;28;19916;-48
2022/07/10 04:49:25;;;;;;;6.05;0.95;;;13.40;99.90;;;;;;5090118;28;20439;-46
2022/07/10 04:51:51;;;;;;;7.45;0.90;;;13.50;99.90;;;;;;5087929;28;20040;-46
2022/07/10 04:54:17;;;;;;;7.90;0.55;;;13.50;99.90;;;;;;5089346;28;20044;-46
2022/07/10 04:56:42;;;;;;;6.80;0.68;;;13.50;99.90;;;;;;5089369;28;20036;-45
2022/07/10 04:59:09;;;;;;;5.60;0.90;;;13.50;99.90;;;;;;5089939;28;20115;-45
2022/07/10 05:01:34;;;;;;;;;;;13.50;99.90;;;;;;5087206;28;20071;-48
2022/07/10 05:04:00;;;;;;;5.45;0.60;;;13.50;99.90;;;;;;5068840;28;19960;-45
2022/07/10 05:06:25;;;;;;;5.55;0.43;;;13.50;99.90;;;;;;5068863;28;20060;-45
2022/07/10 05:08:51;;;;;;;5.83;0.60;;;13.50;99.90;;;;;;5076384;28;20044;-45
2022/07/10 05:11:16;;;;;;;6.03;0.67;;;13.50;99.90;;;;;;5089700;28;20278;-47
2022/07/10 05:13:48;;;;;;;2.20;0.68;;;13.50;99.90;;;;;;5070722;28;20298;-46
2022/07/10 05:16:14;;;;;;;7.55;0.73;;;13.60;99.90;;;;;;5076086;28;20040;-45
2022/07/10 05:18:40;;;;;;;5.03;1.20;;;13.60;99.90;;;;;;5089909;28;20076;-45
2022/07/10 05:21:06;;;;;;;6.43;1.15;;;13.70;99.90;;;;;;5089714;28;20064;-45
2022/07/10 05:23:31;;;;;;;;;;;13.70;99.90;;;;;;5089204;28;20078;-45
2022/07/10 05:25:57;;;;;;;5.40;1.40;;;13.70;99.90;;;;;;5088119;28;19916;-48
2022/07/10 05:28:23;;;;;;;5.67;0.80;;;13.70;99.90;;;;;;5089614;28;20040;-46
2022/07/10 05:30:48;;;;;;;7.85;1.25;;;13.80;99.90;;;;;;5088807;28;20365;-46
2022/07/10 05:33:15;;;;;;;8.60;1.15;;;13.80;99.90;;;;;;5088432;28;20024;-45
2022/07/10 05:35:41;;;;;;;14.07;1.23;;;13.90;99.90;;;;;;5084789;28;20040;-47
2022/07/10 05:38:06;;;;;;;6.72;0.63;;;13.90;99.90;;;;;;5081530;28;20134;-49
2022/07/10 05:40:32;;;;;;;6.38;0.80;;;14.00;99.90;;;;;;5082213;28;20485;-47
2022/07/10 05:42:57;;;;;;;15.52;1.05;;;14.10;99.90;;;;;;5088667;28;20055;-45
2022/07/10 05:45:23;;;;;;;10.75;1.13;;;14.10;99.90;;;;;;5088576;28;20036;-45
2022/07/10 05:47:49;;;;;;;2.40;0.50;;;14.20;99.90;;;;;;5069598;28;20043;-49
2022/07/10 05:50:14;;;;;;;7.07;0.85;;;14.30;99.90;;;;;;5069459;28;20048;-46
2022/07/10 05:52:40;;;;;;;6.30;0.88;;;14.40;99.90;;;;;;5069303;28;20123;-47
2022/07/10 05:55:07;;;;;;;3.65;0.73;;;14.40;99.90;;;;;;5068970;28;20064;-46
2022/07/10 05:57:33;;;;;;;7.95;1.05;;;14.50;99.90;;;;;;5084119;28;20044;-47
2022/07/10 05:59:59;;;;;;;6.40;1.33;;;14.50;99.90;;;;;;5089061;28;20036;-48
2022/07/10 06:02:24;;;;;;;7.35;0.75;;;14.60;99.90;;;;;;5089850;28;20032;-46
2022/07/10 06:04:50;;;;;;;9.27;1.05;;;14.60;99.90;;;;;;5070584;28;20037;-45
2022/07/10 06:07:16;;;;;;;10.80;1.10;;;14.70;99.90;;;;;;5070046;28;20045;-48
2022/07/10 06:09:42;;;;;;;6.30;0.47;;;14.70;99.90;;;;;;5070689;28;20286;-50
2022/07/10 06:12:08;;;;;;;7.85;0.70;;;14.70;99.90;;;;;;5072622;28;20529;-48
2022/07/10 06:14:33;;;;;;;9.10;1.40;;;14.80;99.90;;;;;;5071400;28;20086;-46
2022/07/10 06:16:59;;;;;;;6.85;1.15;;;14.80;99.90;;;;;;5074093;28;20048;-47
2022/07/10 06:19:25;;;;;;;6.35;0.70;;;14.90;99.90;;;;;;5093270;28;20068;-51
2022/07/10 06:22:30;;;;;;;6.95;0.82;;;14.90;99.90;;;;;;5092593;28;20061;-48
2022/07/10 06:24:36;;;;;;;7.05;0.70;;;14.90;99.90;;;;;;5091361;28;20036;-46
2022/07/10 06:27:01;;;;;;;12.27;0.88;;;15.00;99.90;;;;;;5082076;28;20042;-45
2022/07/10 06:29:27;;;;;;;8.80;1.02;;;15.00;99.90;;;;;;5091697;28;20040;-45
2022/07/10 06:31:53;;;;;;;5.10;1.17;;;15.00;99.90;;;;;;5079134;28;20082;-48
2022/07/10 06:34:19;;;;;;;4.93;1.23;;;15.10;99.90;;;;;;5071522;28;20045;-46
2022/07/10 06:36:45;;;;;;;4.43;0.63;;;15.10;99.90;;;;;;5081439;28;20467;-45
2022/07/10 06:39:10;;;;;;;7.43;0.90;;;15.10;99.90;;;;;;5073460;28;20036;-50
2022/07/10 06:41:36;;;;;;;12.20;1.23;;;15.20;99.90;;;;;;5082083;28;20039;-48
2022/07/10 06:44:02;;;;;;;7.68;1.08;;;15.20;99.90;;;;;;5091452;28;20157;-49
2022/07/10 06:46:27;;;;;;;5.82;0.70;;;15.30;99.90;;;;;;5090165;28;20036;-51
2022/07/10 06:48:53;;;;;;;8.02;0.93;;;15.30;99.90;;;;;;5091726;28;20435;-47
2022/07/10 06:51:19;;;;;;;8.82;1.50;;;15.30;99.90;;;;;;5083592;28;20514;-48
2022/07/10 06:53:45;;;;;;;6.60;0.88;;;15.30;99.90;;;;;;5072191;28;20036;-49
2022/07/10 06:56:10;;;;;;;10.05;1.55;;;15.30;99.90;;;;;;5077244;28;20513;-46
2022/07/10 06:58:36;;;;;;;7.05;0.70;;;15.30;99.90;;;;;;5072183;28;20033;-48
2022/07/10 07:01:02;;;;;;;5.82;1.10;;;15.30;99.90;;;;;;5074290;28;20055;-46
2022/07/10 07:03:27;;;;;;;4.57;0.50;;;15.30;99.90;;;;;;5089247;28;20039;-47
2022/07/10 07:05:53;;;;;;;10.38;1.70;;;15.40;99.90;;;;;;5078923;28;20489;-49
2022/07/10 07:08:18;;;;;;;6.47;0.98;;;15.40;99.90;;;;;;5091200;28;20050;-48
2022/07/10 07:10:44;;;;;;;7.43;1.17;;;15.40;99.90;;;;;;5089540;28;20045;-46
2022/07/10 07:13:10;;;;;;;7.57;1.30;;;15.50;99.90;;;;;;5083246;28;20093;-50
2022/07/10 07:15:39;;;;;;;17.63;1.20;;;15.50;99.90;;;;;;5077819;28;20050;-49
2022/07/10 07:18:08;;;;;;;6.68;0.93;;;15.50;99.90;;;;;;5071958;28;20040;-49
2022/07/10 07:23:19;;;;;;;6.70;1.08;;;15.50;99.90;;;;;;5077433;28;20048;-48
2022/07/10 07:25:47;;;;;;;;;;;15.60;99.90;;;;;;5091336;28;20091;-48
2022/07/10 07:28:18;;;;;;;9.60;1.15;;;15.70;99.90;;;;;;5091277;28;19923;-47
2022/07/10 07:30:44;;;;;;;6.28;0.82;;;15.70;99.90;;;;;;5076128;28;20051;-51
2022/07/10 07:33:10;;;;;;;;;;;15.80;99.90;;;;;;5071792;28;20048;-47
2022/07/10 07:35:36;;;;;;;6.72;1.15;;;15.80;99.90;;;;;;5075385;28;20015;-48
2022/07/10 07:38:02;;;;;;;5.75;1.48;;;15.80;99.90;;;;;;5088945;28;20040;-46
2022/07/10 07:40:28;;;;;;;7.63;0.82;;;15.80;99.90;;;;;;5075514;28;20111;-47
2022/07/10 07:42:55;;;;;;;7.32;0.55;;;15.90;99.90;;;;;;5078521;28;20513;-46
2022/07/10 07:45:22;;;;;;;7.20;1.20;;;15.90;99.90;;;;;;5091121;28;20040;-50
2022/07/10 07:47:59;;;;;;;2.42;0.38;;;15.90;99.90;;;;;;5089228;28;20036;-45
2022/07/10 07:50:35;;;;;;;5.20;0.73;;;16.00;99.90;;;;;;5071188;28;20525;-51
2022/07/10 07:53:03;;;;;;;5.13;1.13;;;16.10;99.90;;;;;;5077564;28;20119;-50
2022/07/10 07:55:29;;;;;;;2.67;0.45;;;16.20;99.90;;;;;;5090678;28;20561;-48
2022/07/10 07:57:56;;;;;;;6.57;1.05;;;16.20;99.90;;;;;;5088525;28;20429;-52
2022/07/10 08:00:27;;;;;;;5.07;0.50;;;16.30;99.90;;;;;;5088617;28;20068;-49
2022/07/10 08:02:54;;;;;;;5.72;0.77;;;16.30;99.90;;;;;;5075010;28;20032;-47
2022/07/10 08:05:23;;;;;;;2.30;0.50;;;16.30;99.90;;;;;;5078525;28;20047;-46
2022/07/10 08:08:01;;;;;;;2.65;0.40;;;16.40;99.90;;;;;;5074318;28;20040;-48
2022/07/10 08:10:27;;;;;;;3.80;0.30;;;16.50;99.90;;;;;;5076567;28;20045;-46
2022/07/10 08:12:53;;;;;;;3.78;0.73;;;16.60;99.90;;;;;;5073791;28;20051;-49
2022/07/10 08:15:23;;;;;;;6.68;0.95;;;16.60;99.90;;;;;;5083332;28;20036;-49
2022/07/10 08:17:53;;;;;;;24.13;1.50;;;16.60;99.90;;;;;;5087481;28;20413;-49
2022/07/10 08:20:19;;;;;;;7.47;1.75;;;16.70;99.90;;;;;;5086972;28;20894;-46
2022/07/10 08:22:46;;;;;;;1.75;0.38;;;16.80;99.90;;;;;;5085169;28;20478;-46
2022/07/10 08:25:12;;;;;;;8.07;0.43;;;16.80;99.90;;;;;;5069517;28;20044;-48
2022/07/10 08:27:38;;;;;;;6.72;0.30;;;16.80;99.90;;;;;;5070131;28;20066;-48
2022/07/10 08:30:05;;;;;;;4.88;1.20;;;16.90;99.90;;;;;;5077343;28;20040;-46
2022/07/10 08:32:31;;;;;;;0.70;0.20;;;16.90;99.90;;;;;;5075927;28;20050;-53
2022/07/10 08:34:58;;;;;;;3.30;0.22;;;16.90;99.90;;;;;;5070661;28;20037;-47
2022/07/10 08:37:24;;;;;;;8.23;1.45;;;16.90;99.90;;;;;;5069354;28;20040;-50
2022/07/10 08:39:50;;;;;;;;;;;16.80;99.90;;;;;;5086181;28;20040;-50
2022/07/10 08:42:16;;;;;;;4.38;0.77;;;16.80;99.90;;;;;;5082602;28;20413;-48
2022/07/10 08:44:41;;;;;;;1.15;0.20;;;16.70;99.90;;;;;;5083726;28;20129;-53
2022/07/10 08:47:07;;;;;;;2.47;0.28;;;16.70;99.90;;;;;;5088334;28;20044;-47
2022/07/10 08:49:35;;;;;;;1.23;0.20;;;16.60;99.90;;;;;;5076833;28;20032;-47
2022/07/10 08:52:12;;;;;;;3.78;0.40;;;16.60;99.90;;;;;;5079804;28;20111;-47
2022/07/10 08:54:38;;;;;;;1.30;0.35;;;16.50;99.90;;;;;;5082904;28;20036;-51
2022/07/10 08:57:05;;;;;;;7.45;1.10;;;16.50;99.90;;;;;;5089098;28;20541;-47
2022/07/10 08:59:31;;;;;;;4.13;0.63;;;16.50;99.90;;;;;;5079491;28;20067;-49
2022/07/10 09:01:57;;;;;;;4.32;0.70;;;16.50;99.90;;;;;;5070635;28;20089;-50
2022/07/10 09:04:25;;;;;;;1.42;0.20;;;16.50;99.90;;;;;;5081766;28;20485;-51
2022/07/10 09:06:52;;;;;;;1.70;0.30;;;16.50;99.90;;;;;;5089629;28;20405;-48
2022/07/10 09:09:18;;;;;;;2.05;0.25;;;16.50;99.90;;;;;;5088290;28;20043;-46
2022/07/10 09:11:44;;;;;;;1.38;0.30;;;16.50;99.90;;;;;;5087625;28;20048;-47
2022/07/10 09:14:13;;;;;;;2.03;0.30;;;16.40;99.90;;;;;;5082143;28;20036;-48
2022/07/10 09:16:47;;;;;;;4.13;0.60;;;16.40;99.90;;;;;;5087289;28;20115;-51
2022/07/10 09:19:20;;;;;;;1.30;0.30;;;16.30;99.90;;;;;;5088968;28;20397;-46
2022/07/10 09:21:48;;;;;;;1.48;0.40;;;16.30;99.90;;;;;;5088997;28;20074;-50
2022/07/10 09:24:14;;;;;;;1.50;0.20;;;16.30;99.90;;;;;;5085852;28;20036;-49
2022/07/10 09:26:41;;;;;;;3.90;0.63;;;16.30;99.90;;;;;;5075472;28;20308;-50
2022/07/10 09:29:11;;;;;;;1.00;0.40;;;16.20;99.90;;;;;;5083353;28;20051;-45
2022/07/10 09:32:00;;;;;;;1.33;0.30;;;16.20;99.90;;;;;;5076044;28;20072;-49
2022/07/10 09:34:37;;;;;;;1.92;0.22;;;16.20;99.90;;;;;;5075741;28;20513;-50
2022/07/10 09:37:18;;;;;;;2.30;0.50;;;16.20;99.90;;;;;;5073771;28;20083;-49
2022/07/10 09:40:07;;;;;;;2.10;0.20;;;16.20;99.90;;;;;;5067653;28;20044;-51
2022/07/10 09:42:37;;;;;;;3.63;0.30;;;16.20;99.90;;;;;;5087897;28;20089;-49
2022/07/10 09:45:20;;;;;;;3.75;0.60;;;16.20;99.90;;;;;;5087200;28;20312;-46
2022/07/10 09:47:53;;;;;;;4.13;0.40;;;16.30;99.90;;;;;;5074943;28;20040;-47
2022/07/10 09:50:24;;;;;;;1.90;0.32;;;16.30;99.90;;;;;;5093147;28;20101;-46
2022/07/10 09:52:54;;;;;;;1.92;0.40;;;16.40;99.90;;;;;;5072883;28;20124;-51
2022/07/10 09:55:21;;;;;;;4.57;0.50;;;16.50;99.90;;;;;;5074993;28;20040;-51
2022/07/10 09:57:54;;;;;;;3.90;0.20;;;16.60;99.90;;;;;;5090825;28;20039;-46
2022/07/10 10:00:46;;;;;;;1.98;0.32;;;16.60;99.90;;;;;;5093247;28;20089;-50
2022/07/10 10:03:14;;;;;;;2.55;0.40;;;16.60;99.90;;;;;;5071553;28;20037;-49
2022/07/10 10:05:44;;;;;;;5.53;0.40;;;16.60;99.90;;;;;;5079661;28;20032;-49
2022/07/10 10:08:19;;;;;;;1.40;0.20;;;16.60;99.90;;;;;;5072120;28;20501;-52
2022/07/10 10:10:47;;;;;;;3.15;0.75;;;16.60;99.90;;;;;;5072242;28;20048;-53
2022/07/10 10:13:20;;;;;;;2.25;0.30;;;16.60;99.90;;;;;;5091627;28;20501;-48
2022/07/10 10:15:52;;;;;;;2.28;0.20;;;16.60;99.90;;;;;;5086890;28;20036;-53
2022/07/10 10:18:24;;;;;;;2.53;0.40;;;16.60;99.90;;;;;;5072267;28;20072;-46
2022/07/10 10:20:53;;;;;;;4.38;0.55;;;16.60;99.90;;;;;;5072228;28;20040;-48
2022/07/10 10:23:22;;;;;;;0.60;0.20;;;16.60;99.90;;;;;;5090746;28;20047;-48
2022/07/10 10:25:49;;;;;;;1.27;0.20;;;16.60;99.90;;;;;;5088533;28;20037;-47
2022/07/10 10:28:16;;;;;;;1.85;0.25;;;16.60;99.90;;;;;;5081491;28;20035;-47
2022/07/10 10:30:45;;;;;;;1.30;0.15;;;16.60;99.90;;;;;;5083781;28;20079;-47
2022/07/10 10:33:45;;;;;;;2.05;0.40;;;16.50;99.90;;;;;;5073351;28;20040;-46
2022/07/10 10:36:13;;;;;;;8.15;0.95;;;16.60;99.90;;;;;;5010518;28;20050;-49
2022/07/10 10:38:55;;;;;;;3.30;0.43;;;16.60;99.90;;;;;;5010517;28;20050;-45
2022/07/10 10:41:40;;;;;;;0.60;0.20;;;16.60;99.90;;;;;;5010026;28;20034;-47
2022/07/10 10:44:09;;;;;;;2.65;0.52;;;16.70;99.90;;;;;;5028166;28;20048;-49
2022/07/10 10:46:36;;;;;;;2.13;0.30;;;16.70;99.90;;;;;;5027587;28;20523;-49
2022/07/10 10:49:08;;;;;;;3.30;0.38;;;16.70;99.90;;;;;;5014554;28;20046;-46
2022/07/10 10:52:02;;;;;;;3.25;0.45;;;16.80;99.90;;;;;;5015529;28;20171;-48
2022/07/10 10:55:08;;;;;;;0.95;0.65;;;16.80;99.90;;;;;;5000517;28;20128;-47
2022/07/10 10:57:45;;;;;;;1.40;0.20;;;16.80;99.90;;;;;;4949904;29;20055;-47
2022/07/10 11:00:14;;;;;;;5.20;0.95;;;16.70;99.90;;;;;;4932249;29;20501;-50
2022/07/10 11:02:41;;;;;;;4.68;0.47;;;16.70;99.90;;;;;;4979318;28;20046;-49
2022/07/10 11:05:13;;;;;;;0.60;0.30;;;16.70;99.90;;;;;;5021542;28;20607;-47
2022/07/10 11:07:58;;;;;;;1.55;0.30;;;16.80;99.90;;;;;;5027431;28;20515;-45
2022/07/10 11:10:32;;;;;;;2.97;0.28;;;16.80;99.90;;;;;;5010992;28;20048;-45
2022/07/10 11:13:00;;;;;;;0.98;0.52;;;16.80;99.90;;;;;;5079837;28;20071;-46
2022/07/10 11:15:26;;;;;;;2.88;0.40;;;16.90;99.90;;;;;;5081959;28;20101;-48
2022/07/10 11:17:52;;;;;;;1.67;0.45;;;16.90;99.90;;;;;;5079565;28;20089;-45
2022/07/10 11:20:18;;;;;;;1.58;0.40;;;17.00;99.90;;;;;;5074585;28;20072;-48
2022/07/10 11:23:00;;;;;;;2.92;0.50;;;17.00;99.90;;;;;;5079408;28;20475;-48
2022/07/10 11:25:42;;;;;;;1.73;0.32;;;17.00;99.90;;;;;;5088468;28;20036;-49
2022/07/10 11:28:09;;;;;;;4.43;0.50;;;17.00;99.90;;;;;;5080400;28;20094;-45
2022/07/10 11:30:54;;;;;;;1.98;0.40;;;17.00;99.90;;;;;;5071765;28;20162;-45
2022/07/10 11:33:22;;;;;;;3.30;0.70;;;17.00;99.90;;;;;;5075151;28;20036;-46
2022/07/10 11:35:49;;;;;;;2.33;0.77;;;17.10;99.90;;;;;;5074092;28;20090;-45
2022/07/10 11:38:19;;;;;;;3.75;0.60;;;17.20;99.90;;;;;;5070962;28;20417;-48
2022/07/10 11:40:45;;;;;;;3.05;0.50;;;17.30;99.90;;;;;;5077411;28;20517;-50
2022/07/10 11:43:14;;;;;;;4.35;0.75;;;17.30;99.90;;;;;;5090369;28;20045;-49
2022/07/10 11:45:40;;;;;;;2.90;0.73;;;17.40;99.90;;;;;;5086299;28;20040;-45
2022/07/10 11:48:08;;;;;;;3.25;0.80;;;17.40;99.90;;;;;;5083765;28;20043;-45
2022/07/10 11:50:38;;;;;;;3.47;1.00;;;17.50;99.90;;;;;;5082796;28;20486;-47
2022/07/10 11:53:04;;;;;;;3.65;0.80;;;17.60;99.90;;;;;;5069607;28;20036;-49
2022/07/10 11:55:31;;;;;;;4.15;0.65;;;17.70;99.90;;;;;;5083761;28;20488;-47
2022/07/10 11:57:57;;;;;;;3.20;0.60;;;17.70;99.90;;;;;;5090445;28;20066;-46
2022/07/10 12:00:25;;;;;;;2.22;0.60;;;17.70;99.90;;;;;;5086592;28;20037;-45
2022/07/10 12:02:52;;;;;;;3.20;0.47;;;17.80;99.90;;;;;;5089172;28;20111;-47
2022/07/10 12:05:33;;;;;;;4.50;0.82;;;17.80;99.90;;;;;;5076995;28;20067;-45
2022/07/10 12:07:59;;;;;;;2.38;0.40;;;17.80;99.90;;;;;;5069522;28;20410;-46
2022/07/10 12:10:29;;;;;;;1.67;0.30;;;17.80;99.90;;;;;;5079386;28;20052;-47
2022/07/10 12:13:12;;;;;;;1.38;0.20;;;17.70;99.90;;;;;;5070443;28;20528;-48
2022/07/10 12:15:48;;;;;;;4.57;0.80;;;17.70;99.90;;;;;;5083512;28;20028;-49
2022/07/10 12:18:18;;;;;;;3.03;0.75;;;17.70;99.90;;;;;;5090396;28;20051;-47
2022/07/10 12:20:47;;;;;;;4.30;0.52;;;17.70;99.90;;;;;;5084741;28;20036;-46
2022/07/10 12:23:16;;;;;;;2.60;0.60;;;17.80;99.90;;;;;;5086867;28;20116;-48
2022/07/10 12:25:43;;;;;;;2.20;0.50;;;17.90;99.90;;;;;;5077922;28;20037;-45
2022/07/10 12:28:09;;;;;;;5.78;0.70;;;17.90;99.90;;;;;;5089493;28;20279;-46
2022/07/10 12:30:45;;;;;;;4.45;1.10;;;17.90;99.90;;;;;;5078639;28;20127;-48
2022/07/10 12:33:20;;;;;;;5.32;0.85;;;17.90;99.90;;;;;;5069462;28;20510;-47
2022/07/10 12:35:55;;;;;;;6.90;0.50;;;17.90;99.90;;;;;;5080469;28;20524;-50
2022/07/10 12:38:31;;;;;;;2.92;0.40;;;17.80;99.90;;;;;;5070292;28;20040;-45
2022/07/10 12:41:10;;;;;;;4.32;0.70;;;17.70;99.90;;;;;;5083007;28;20568;-46
2022/07/10 12:43:36;;;;;;;4.68;0.50;;;17.70;99.90;;;;;;5079336;28;20111;-45
2022/07/10 12:46:22;;;;;;;3.63;0.73;;;17.70;99.90;;;;;;5080922;28;20089;-46
2022/07/10 12:49:08;;;;;;;3.80;0.43;;;17.80;99.90;;;;;;5073705;28;20545;-47
2022/07/10 12:51:44;;;;;;;2.08;0.50;;;17.90;99.90;;;;;;5080747;28;20036;-46
2022/07/10 12:54:30;;;;;;;4.37;0.50;;;18.10;99.90;;;;;;5087444;28;20074;-45
2022/07/10 12:57:00;;;;;;;4.53;0.70;;;18.10;99.90;;;;;;5070135;28;20700;-46
2022/07/10 12:59:26;;;;;;;3.20;0.65;;;18.20;99.90;;;;;;5083208;28;20044;-47